sensor_id;sensor_type;location;lat;lon;timestamp;temperature;humidity
8856;DHT22;4464;50.882;4.730;2023-08-21T00:00:43;21.20;99.90
8856;DHT22;4464;50.882;4.730;2023-08-21T00:03:09;21.10;99.90
8856;DHT22;4464;50.882;4.730;2023-08-21T00:05:34;21.10;99.90
8856;DHT22;4464;50.882;4.730;2023-08-21T00:08:00;21.00;99.90
8856;DHT22;4464;50.882;4.730;2023-08-21T00:10:30;21.00;99.90
8856;DHT22;4464;50.882;4.730;2023-08-21T00:12:58;21.00;99.90
8856;DHT22;4464;50.882;4.730;2023-08-21T00:15:24;21.10;99.90
8856;DHT22;4464;50.882;4.730;2023-08-21T00:17:50;21.00;99.90
8856;DHT22;4464;50.882;4.730;2023-08-21T00:20:15;21.00;99.90
8856;DHT22;4464;50.882;4.730;2023-08-21T00:22:41;21.00;99.90
8856;DHT22;4464;50.882;4.730;2023-08-21T00:25:07;21.00;99.90
8856;DHT22;4464;50.882;4.730;2023-08-21T00:27:35;20.90;99.90
8856;DHT22;4464;50.882;4.730;2023-08-21T00:30:01;20.90;99.90
8856;DHT22;4464;50.882;4.730;2023-08-21T00:32:27;20.80;99.90
8856;DHT22;4464;50.882;4.730;2023-08-21T00:34:57;20.80;99.90
8856;DHT22;4464;50.882;4.730;2023-08-21T00:37:23;20.80;99.90
8856;DHT22;4464;50.882;4.730;2023-08-21T00:39:49;20.70;99.90
8856;DHT22;4464;50.882;4.730;2023-08-21T00:42:19;20.70;99.90
8856;DHT22;4464;50.882;4.730;2023-08-21T00:44:45;20.60;99.90
8856;DHT22;4464;50.882;4.730;2023-08-21T00:47:11;20.40;99.90
8856;DHT22;4464;50.882;4.730;2023-08-21T00:49:39;20.30;99.90
8856;DHT22;4464;50.882;4.730;2023-08-21T00:52:11;20.30;99.90
8856;DHT22;4464;50.882;4.730;2023-08-21T00:54:40;20.40;99.90
8856;DHT22;4464;50.882;4.730;2023-08-21T00:57:06;20.40;99.90
8856;DHT22;4464;50.882;4.730;2023-08-21T00:59:35;20.30;99.90
8856;DHT22;4464;50.882;4.730;2023-08-21T01:02:00;20.30;99.90
8856;DHT22;4464;50.882;4.730;2023-08-21T01:04:26;20.30;99.90
8856;DHT22;4464;50.882;4.730;2023-08-21T01:06:52;20.20;99.90
8856;DHT22;4464;50.882;4.730;2023-08-21T01:09:26;20.20;99.90
8856;DHT22;4464;50.882;4.730;2023-08-21T01:15:03;20.20;99.90
8856;DHT22;4464;50.882;4.730;2023-08-21T01:17:30;20.30;99.90
8856;DHT22;4464;50.882;4.730;2023-08-21T01:19:59;20.30;99.90
8856;DHT22;4464;50.882;4.730;2023-08-21T01:22:39;20.30;99.90
8856;DHT22;4464;50.882;4.730;2023-08-21T01:25:08;20.30;99.90
8856;DHT22;4464;50.882;4.730;2023-08-21T01:27:42;20.30;99.90
8856;DHT22;4464;50.882;4.730;2023-08-21T01:30:08;20.30;99.90
8856;DHT22;4464;50.882;4.730;2023-08-21T01:35:24;20.20;99.90
8856;DHT22;4464;50.882;4.730;2023-08-21T01:37:50;20.20;99.90
8856;DHT22;4464;50.882;4.730;2023-08-21T01:40:26;20.10;99.90
8856;DHT22;4464;50.882;4.730;2023-08-21T01:42:57;20.10;99.90
8856;DHT22;4464;50.882;4.730;2023-08-21T01:45:23;20.00;99.90
8856;DHT22;4464;50.882;4.730;2023-08-21T01:47:49;19.90;99.90
8856;DHT22;4464;50.882;4.730;2023-08-21T01:50:15;19.90;99.90
8856;DHT22;4464;50.882;4.730;2023-08-21T01:52:40;19.80;99.90
8856;DHT22;4464;50.882;4.730;2023-08-21T01:55:06;19.60;99.90
8856;DHT22;4464;50.882;4.730;2023-08-21T01:57:33;19.60;99.90
8856;DHT22;4464;50.882;4.730;2023-08-21T01:59:59;19.50;99.90
8856;DHT22;4464;50.882;4.730;2023-08-21T02:02:25;19.50;99.90
8856;DHT22;4464;50.882;4.730;2023-08-21T02:04:53;19.50;99.90
8856;DHT22;4464;50.882;4.730;2023-08-21T02:07:19;19.50;99.90
8856;DHT22;4464;50.882;4.730;2023-08-21T02:09:47;19.50;99.90
8856;DHT22;4464;50.882;4.730;2023-08-21T02:12:13;19.60;99.90
8856;DHT22;4464;50.882;4.730;2023-08-21T02:14:40;19.60;99.90
8856;DHT22;4464;50.882;4.730;2023-08-21T02:17:08;19.60;99.90
8856;DHT22;4464;50.882;4.730;2023-08-21T02:19:37;19.60;99.90
8856;DHT22;4464;50.882;4.730;2023-08-21T02:22:02;19.60;99.90
8856;DHT22;4464;50.882;4.730;2023-08-21T02:24:32;19.50;99.90
8856;DHT22;4464;50.882;4.730;2023-08-21T02:26:58;19.40;99.90
8856;DHT22;4464;50.882;4.730;2023-08-21T02:29:26;19.40;99.90
8856;DHT22;4464;50.882;4.730;2023-08-21T02:31:54;19.50;99.90
8856;DHT22;4464;50.882;4.730;2023-08-21T02:34:23;19.40;99.90
8856;DHT22;4464;50.882;4.730;2023-08-21T02:36:48;19.30;99.90
8856;DHT22;4464;50.882;4.730;2023-08-21T02:39:16;19.30;99.90
8856;DHT22;4464;50.882;4.730;2023-08-21T02:41:44;19.30;99.90
8856;DHT22;4464;50.882;4.730;2023-08-21T02:44:09;19.20;99.90
8856;DHT22;4464;50.882;4.730;2023-08-21T02:46:44;19.10;99.90
8856;DHT22;4464;50.882;4.730;2023-08-21T02:49:10;19.10;99.90
8856;DHT22;4464;50.882;4.730;2023-08-21T02:51:38;19.10;99.90
8856;DHT22;4464;50.882;4.730;2023-08-21T02:54:04;19.10;99.90
8856;DHT22;4464;50.882;4.730;2023-08-21T02:56:31;19.00;99.90
8856;DHT22;4464;50.882;4.730;2023-08-21T02:58:57;19.00;99.90
8856;DHT22;4464;50.882;4.730;2023-08-21T03:01:23;19.10;99.90
8856;DHT22;4464;50.882;4.730;2023-08-21T03:03:51;19.10;99.90
8856;DHT22;4464;50.882;4.730;2023-08-21T03:06:21;19.20;99.90
8856;DHT22;4464;50.882;4.730;2023-08-21T03:08:46;19.20;99.90
8856;DHT22;4464;50.882;4.730;2023-08-21T03:11:12;19.30;99.90
8856;DHT22;4464;50.882;4.730;2023-08-21T03:13:38;19.20;99.90
8856;DHT22;4464;50.882;4.730;2023-08-21T03:16:04;19.20;99.90
8856;DHT22;4464;50.882;4.730;2023-08-21T03:18:34;19.10;99.90
8856;DHT22;4464;50.882;4.730;2023-08-21T03:21:02;19.20;99.90
8856;DHT22;4464;50.882;4.730;2023-08-21T03:23:30;19.30;99.90
8856;DHT22;4464;50.882;4.730;2023-08-21T03:25:56;19.40;99.90
8856;DHT22;4464;50.882;4.730;2023-08-21T03:28:21;19.50;99.90
8856;DHT22;4464;50.882;4.730;2023-08-21T03:30:50;19.40;99.90
8856;DHT22;4464;50.882;4.730;2023-08-21T03:33:18;19.40;99.90
8856;DHT22;4464;50.882;4.730;2023-08-21T03:35:43;19.40;99.90
8856;DHT22;4464;50.882;4.730;2023-08-21T03:38:14;19.40;99.90
8856;DHT22;4464;50.882;4.730;2023-08-21T03:40:44;19.40;99.90
8856;DHT22;4464;50.882;4.730;2023-08-21T03:43:10;19.40;99.90
8856;DHT22;4464;50.882;4.730;2023-08-21T03:45:38;19.40;99.90
8856;DHT22;4464;50.882;4.730;2023-08-21T03:48:06;19.40;99.90
8856;DHT22;4464;50.882;4.730;2023-08-21T03:50:31;19.40;99.90
8856;DHT22;4464;50.882;4.730;2023-08-21T03:52:59;19.30;99.90
8856;DHT22;4464;50.882;4.730;2023-08-21T03:55:25;19.20;99.90
8856;DHT22;4464;50.882;4.730;2023-08-21T03:57:50;19.30;99.90
8856;DHT22;4464;50.882;4.730;2023-08-21T04:00:16;19.30;99.90
8856;DHT22;4464;50.882;4.730;2023-08-21T04:02:46;19.30;99.90
8856;DHT22;4464;50.882;4.730;2023-08-21T04:05:12;19.20;99.90
8856;DHT22;4464;50.882;4.730;2023-08-21T04:07:38;19.10;99.90
8856;DHT22;4464;50.882;4.730;2023-08-21T04:10:04;19.10;99.90
8856;DHT22;4464;50.882;4.730;2023-08-21T04:12:30;19.10;99.90
8856;DHT22;4464;50.882;4.730;2023-08-21T04:14:58;19.00;99.90
8856;DHT22;4464;50.882;4.730;2023-08-21T04:17:24;19.00;99.90
8856;DHT22;4464;50.882;4.730;2023-08-21T04:19:50;18.80;99.90
8856;DHT22;4464;50.882;4.730;2023-08-21T04:22:16;18.80;99.90
8856;DHT22;4464;50.882;4.730;2023-08-21T04:24:44;18.80;99.90
8856;DHT22;4464;50.882;4.730;2023-08-21T04:27:14;18.80;99.90
8856;DHT22;4464;50.882;4.730;2023-08-21T04:29:42;18.80;99.90
8856;DHT22;4464;50.882;4.730;2023-08-21T04:32:11;18.70;99.90
8856;DHT22;4464;50.882;4.730;2023-08-21T04:34:40;18.70;99.90
8856;DHT22;4464;50.882;4.730;2023-08-21T04:37:05;18.70;99.90
8856;DHT22;4464;50.882;4.730;2023-08-21T04:39:33;18.70;99.90
8856;DHT22;4464;50.882;4.730;2023-08-21T04:42:00;18.70;99.90
8856;DHT22;4464;50.882;4.730;2023-08-21T04:44:26;18.60;99.90
8856;DHT22;4464;50.882;4.730;2023-08-21T04:46:51;18.60;99.90
8856;DHT22;4464;50.882;4.730;2023-08-21T04:49:19;18.60;99.90
8856;DHT22;4464;50.882;4.730;2023-08-21T04:51:49;18.50;99.90
8856;DHT22;4464;50.882;4.730;2023-08-21T04:54:20;18.50;99.90
8856;DHT22;4464;50.882;4.730;2023-08-21T04:56:48;18.50;99.90
8856;DHT22;4464;50.882;4.730;2023-08-21T04:59:13;18.50;99.90
8856;DHT22;4464;50.882;4.730;2023-08-21T05:01:41;18.50;99.90
8856;DHT22;4464;50.882;4.730;2023-08-21T05:04:09;18.50;99.90
8856;DHT22;4464;50.882;4.730;2023-08-21T05:06:35;18.50;99.90
8856;DHT22;4464;50.882;4.730;2023-08-21T05:09:01;18.50;99.90
8856;DHT22;4464;50.882;4.730;2023-08-21T05:11:27;18.60;99.90
8856;DHT22;4464;50.882;4.730;2023-08-21T05:13:54;18.60;99.90
8856;DHT22;4464;50.882;4.730;2023-08-21T05:16:20;18.60;99.90
8856;DHT22;4464;50.882;4.730;2023-08-21T05:18:53;18.60;99.90
8856;DHT22;4464;50.882;4.730;2023-08-21T05:21:21;18.60;99.90
8856;DHT22;4464;50.882;4.730;2023-08-21T05:23:47;18.60;99.90
8856;DHT22;4464;50.882;4.730;2023-08-21T05:26:12;18.70;99.90
8856;DHT22;4464;50.882;4.730;2023-08-21T05:28:40;18.70;99.90
8856;DHT22;4464;50.882;4.730;2023-08-21T05:31:06;18.70;99.90
8856;DHT22;4464;50.882;4.730;2023-08-21T05:33:34;18.80;99.90
8856;DHT22;4464;50.882;4.730;2023-08-21T05:35:59;18.80;99.90
8856;DHT22;4464;50.882;4.730;2023-08-21T05:38:28;18.90;99.90
8856;DHT22;4464;50.882;4.730;2023-08-21T05:40:56;18.80;99.90
8856;DHT22;4464;50.882;4.730;2023-08-21T05:43:21;18.90;99.90
8856;DHT22;4464;50.882;4.730;2023-08-21T05:45:47;18.90;99.90
8856;DHT22;4464;50.882;4.730;2023-08-21T05:48:13;18.90;99.90
8856;DHT22;4464;50.882;4.730;2023-08-21T05:50:39;18.90;99.90
8856;DHT22;4464;50.882;4.730;2023-08-21T05:53:05;19.00;99.90
8856;DHT22;4464;50.882;4.730;2023-08-21T05:55:34;19.10;99.90
8856;DHT22;4464;50.882;4.730;2023-08-21T05:58:04;19.10;99.90
8856;DHT22;4464;50.882;4.730;2023-08-21T06:00:30;19.30;99.90
8856;DHT22;4464;50.882;4.730;2023-08-21T06:02:56;19.40;99.90
8856;DHT22;4464;50.882;4.730;2023-08-21T06:05:24;19.40;99.90
8856;DHT22;4464;50.882;4.730;2023-08-21T06:07:49;19.40;99.90
8856;DHT22;4464;50.882;4.730;2023-08-21T06:10:15;19.40;99.90
8856;DHT22;4464;50.882;4.730;2023-08-21T06:12:41;19.40;99.90
8856;DHT22;4464;50.882;4.730;2023-08-21T06:15:08;19.40;99.90
8856;DHT22;4464;50.882;4.730;2023-08-21T06:17:34;19.40;99.90
8856;DHT22;4464;50.882;4.730;2023-08-21T06:20:03;19.30;99.90
8856;DHT22;4464;50.882;4.730;2023-08-21T06:22:35;19.40;99.90
8856;DHT22;4464;50.882;4.730;2023-08-21T06:25:01;19.50;99.90
8856;DHT22;4464;50.882;4.730;2023-08-21T06:27:27;19.60;99.90
8856;DHT22;4464;50.882;4.730;2023-08-21T06:29:55;19.70;99.90
8856;DHT22;4464;50.882;4.730;2023-08-21T06:32:26;19.70;99.90
8856;DHT22;4464;50.882;4.730;2023-08-21T06:34:54;19.80;99.90
8856;DHT22;4464;50.882;4.730;2023-08-21T06:37:20;19.80;99.90
8856;DHT22;4464;50.882;4.730;2023-08-21T06:39:46;19.90;99.90
8856;DHT22;4464;50.882;4.730;2023-08-21T06:42:14;20.00;99.90
8856;DHT22;4464;50.882;4.730;2023-08-21T06:44:40;20.10;99.90
8856;DHT22;4464;50.882;4.730;2023-08-21T06:47:05;20.30;99.90
8856;DHT22;4464;50.882;4.730;2023-08-21T06:49:31;20.50;99.90
8856;DHT22;4464;50.882;4.730;2023-08-21T06:51:57;20.50;99.90
8856;DHT22;4464;50.882;4.730;2023-08-21T06:54:25;20.50;99.90
8856;DHT22;4464;50.882;4.730;2023-08-21T06:56:53;20.60;99.90
8856;DHT22;4464;50.882;4.730;2023-08-21T06:59:21;20.60;99.90
8856;DHT22;4464;50.882;4.730;2023-08-21T07:01:47;20.70;99.90
8856;DHT22;4464;50.882;4.730;2023-08-21T07:04:15;20.90;99.90
8856;DHT22;4464;50.882;4.730;2023-08-21T07:06:41;20.90;99.90
8856;DHT22;4464;50.882;4.730;2023-08-21T07:09:09;21.00;99.90
8856;DHT22;4464;50.882;4.730;2023-08-21T07:11:35;21.10;99.90
8856;DHT22;4464;50.882;4.730;2023-08-21T07:14:01;21.10;99.90
8856;DHT22;4464;50.882;4.730;2023-08-21T07:16:26;21.10;99.90
8856;DHT22;4464;50.882;4.730;2023-08-21T07:18:52;21.10;99.90
8856;DHT22;4464;50.882;4.730;2023-08-21T07:21:18;21.20;99.90
8856;DHT22;4464;50.882;4.730;2023-08-21T07:23:48;21.30;99.90
8856;DHT22;4464;50.882;4.730;2023-08-21T07:26:14;21.40;99.90
8856;DHT22;4464;50.882;4.730;2023-08-21T07:28:42;21.60;99.90
8856;DHT22;4464;50.882;4.730;2023-08-21T07:31:07;21.50;99.90
8856;DHT22;4464;50.882;4.730;2023-08-21T07:33:35;21.60;99.90
8856;DHT22;4464;50.882;4.730;2023-08-21T07:36:03;21.80;99.90
8856;DHT22;4464;50.882;4.730;2023-08-21T07:38:32;21.70;99.90
8856;DHT22;4464;50.882;4.730;2023-08-21T07:41:07;21.80;99.90
8856;DHT22;4464;50.882;4.730;2023-08-21T07:43:35;21.90;99.90
8856;DHT22;4464;50.882;4.730;2023-08-21T07:46:05;21.80;99.90
8856;DHT22;4464;50.882;4.730;2023-08-21T07:48:31;21.70;99.90
8856;DHT22;4464;50.882;4.730;2023-08-21T07:50:58;21.70;99.90
8856;DHT22;4464;50.882;4.730;2023-08-21T07:53:27;21.70;99.90
8856;DHT22;4464;50.882;4.730;2023-08-21T07:55:53;21.70;99.90
8856;DHT22;4464;50.882;4.730;2023-08-21T07:58:20;21.80;99.90
8856;DHT22;4464;50.882;4.730;2023-08-21T08:00:49;22.10;99.90
8856;DHT22;4464;50.882;4.730;2023-08-21T08:03:15;22.30;99.90
8856;DHT22;4464;50.882;4.730;2023-08-21T08:05:44;22.50;99.90
8856;DHT22;4464;50.882;4.730;2023-08-21T08:08:10;22.60;99.90
8856;DHT22;4464;50.882;4.730;2023-08-21T08:10:40;23.00;99.90
8856;DHT22;4464;50.882;4.730;2023-08-21T08:13:06;23.40;99.90
8856;DHT22;4464;50.882;4.730;2023-08-21T08:15:31;23.70;99.90
8856;DHT22;4464;50.882;4.730;2023-08-21T08:18:04;24.20;99.90
8856;DHT22;4464;50.882;4.730;2023-08-21T08:20:31;24.20;99.90
8856;DHT22;4464;50.882;4.730;2023-08-21T08:22:56;24.10;99.90
8856;DHT22;4464;50.882;4.730;2023-08-21T08:25:23;24.40;99.90
8856;DHT22;4464;50.882;4.730;2023-08-21T08:27:48;24.50;99.90
8856;DHT22;4464;50.882;4.730;2023-08-21T08:30:15;24.70;99.90
8856;DHT22;4464;50.882;4.730;2023-08-21T08:32:45;24.80;99.90
8856;DHT22;4464;50.882;4.730;2023-08-21T08:35:16;25.10;99.90
8856;DHT22;4464;50.882;4.730;2023-08-21T08:37:42;25.10;99.90
8856;DHT22;4464;50.882;4.730;2023-08-21T08:40:11;25.20;99.90
8856;DHT22;4464;50.882;4.730;2023-08-21T08:42:39;25.20;99.90
8856;DHT22;4464;50.882;4.730;2023-08-21T08:45:05;25.00;99.90
8856;DHT22;4464;50.882;4.730;2023-08-21T08:47:35;25.20;99.90
8856;DHT22;4464;50.882;4.730;2023-08-21T08:50:07;26.10;99.90
8856;DHT22;4464;50.882;4.730;2023-08-21T08:52:38;27.20;99.90
8856;DHT22;4464;50.882;4.730;2023-08-21T08:55:05;28.40;99.90
8856;DHT22;4464;50.882;4.730;2023-08-21T08:57:34;29.20;98.20
8856;DHT22;4464;50.882;4.730;2023-08-21T09:00:01;29.50;97.00
8856;DHT22;4464;50.882;4.730;2023-08-21T09:02:26;30.20;96.20
8856;DHT22;4464;50.882;4.730;2023-08-21T09:04:57;31.30;94.00
8856;DHT22;4464;50.882;4.730;2023-08-21T09:07:25;32.10;92.50
8856;DHT22;4464;50.882;4.730;2023-08-21T09:09:51;32.10;91.80
8856;DHT22;4464;50.882;4.730;2023-08-21T09:12:18;31.40;91.90
8856;DHT22;4464;50.882;4.730;2023-08-21T09:14:49;32.20;91.00
8856;DHT22;4464;50.882;4.730;2023-08-21T09:17:17;31.80;91.20
8856;DHT22;4464;50.882;4.730;2023-08-21T09:19:48;31.90;90.50
8856;DHT22;4464;50.882;4.730;2023-08-21T09:22:17;32.50;90.30
8856;DHT22;4464;50.882;4.730;2023-08-21T09:25:06;31.80;90.00
8856;DHT22;4464;50.882;4.730;2023-08-21T09:27:38;30.60;90.60
8856;DHT22;4464;50.882;4.730;2023-08-21T09:30:05;30.30;90.60
8856;DHT22;4464;50.882;4.730;2023-08-21T09:35:23;30.00;91.80
8856;DHT22;4464;50.882;4.730;2023-08-21T09:37:51;31.00;91.00
8856;DHT22;4464;50.882;4.730;2023-08-21T09:40:19;31.40;90.70
8856;DHT22;4464;50.882;4.730;2023-08-21T09:42:45;32.50;89.50
8856;DHT22;4464;50.882;4.730;2023-08-21T09:45:11;33.50;87.60
8856;DHT22;4464;50.882;4.730;2023-08-21T09:47:37;34.70;78.20
8856;DHT22;4464;50.882;4.730;2023-08-21T09:50:05;35.10;77.80
8856;DHT22;4464;50.882;4.730;2023-08-21T09:52:34;33.30;76.00
8856;DHT22;4464;50.882;4.730;2023-08-21T09:55:04;32.40;79.10
8856;DHT22;4464;50.882;4.730;2023-08-21T09:57:33;33.70;77.60
8856;DHT22;4464;50.882;4.730;2023-08-21T10:00:02;34.20;79.00
8856;DHT22;4464;50.882;4.730;2023-08-21T10:02:42;32.50;83.70
8856;DHT22;4464;50.882;4.730;2023-08-21T10:05:11;33.40;82.30
8856;DHT22;4464;50.882;4.730;2023-08-21T10:07:38;34.40;79.80
8856;DHT22;4464;50.882;4.730;2023-08-21T10:10:05;34.10;80.40
8856;DHT22;4464;50.882;4.730;2023-08-21T10:12:31;34.80;79.20
8856;DHT22;4464;50.882;4.730;2023-08-21T10:14:57;33.50;82.00
8856;DHT22;4464;50.882;4.730;2023-08-21T10:17:23;32.80;82.60
8856;DHT22;4464;50.882;4.730;2023-08-21T10:19:52;33.40;83.60
8856;DHT22;4464;50.882;4.730;2023-08-21T10:22:43;34.50;78.60
8856;DHT22;4464;50.882;4.730;2023-08-21T10:25:23;34.60;76.50
8856;DHT22;4464;50.882;4.730;2023-08-21T10:27:56;33.40;76.80
8856;DHT22;4464;50.882;4.730;2023-08-21T10:30:24;32.90;79.50
8856;DHT22;4464;50.882;4.730;2023-08-21T10:32:51;32.80;78.80
8856;DHT22;4464;50.882;4.730;2023-08-21T10:35:24;32.40;79.40
8856;DHT22;4464;50.882;4.730;2023-08-21T10:38:14;31.40;80.90
8856;DHT22;4464;50.882;4.730;2023-08-21T10:41:08;31.60;81.60
8856;DHT22;4464;50.882;4.730;2023-08-21T10:46:05;35.20;76.20
8856;DHT22;4464;50.882;4.730;2023-08-21T10:48:30;34.80;76.10
8856;DHT22;4464;50.882;4.730;2023-08-21T10:50:59;34.10;75.30
8856;DHT22;4464;50.882;4.730;2023-08-21T10:53:25;32.70;77.80
8856;DHT22;4464;50.882;4.730;2023-08-21T10:55:54;32.90;78.70
8856;DHT22;4464;50.882;4.730;2023-08-21T10:58:20;32.40;78.70
8856;DHT22;4464;50.882;4.730;2023-08-21T11:00:49;32.00;79.50
8856;DHT22;4464;50.882;4.730;2023-08-21T11:03:25;33.30;77.30
8856;DHT22;4464;50.882;4.730;2023-08-21T11:06:08;34.90;76.80
8856;DHT22;4464;50.882;4.730;2023-08-21T11:08:35;36.80;73.00
8856;DHT22;4464;50.882;4.730;2023-08-21T11:11:09;37.10;71.10
8856;DHT22;4464;50.882;4.730;2023-08-21T11:13:35;35.00;73.60
8856;DHT22;4464;50.882;4.730;2023-08-21T11:16:06;33.50;76.90
8856;DHT22;4464;50.882;4.730;2023-08-21T11:18:40;33.20;77.10
8856;DHT22;4464;50.882;4.730;2023-08-21T11:21:11;34.00;75.60
8856;DHT22;4464;50.882;4.730;2023-08-21T11:23:41;34.30;73.30
8856;DHT22;4464;50.882;4.730;2023-08-21T11:26:10;31.80;77.30
8856;DHT22;4464;50.882;4.730;2023-08-21T11:28:37;30.40;80.90
8856;DHT22;4464;50.882;4.730;2023-08-21T11:31:04;30.10;81.70
8856;DHT22;4464;50.882;4.730;2023-08-21T11:33:32;29.40;83.00
8856;DHT22;4464;50.882;4.730;2023-08-21T11:35:59;29.00;83.40
8856;DHT22;4464;50.882;4.730;2023-08-21T11:38:26;28.70;84.00
8856;DHT22;4464;50.882;4.730;2023-08-21T11:41:05;29.70;84.60
8856;DHT22;4464;50.882;4.730;2023-08-21T11:43:35;31.90;81.40
8856;DHT22;4464;50.882;4.730;2023-08-21T11:46:03;33.70;76.70
8856;DHT22;4464;50.882;4.730;2023-08-21T11:48:29;34.00;75.30
8856;DHT22;4464;50.882;4.730;2023-08-21T11:50:57;34.90;73.70
8856;DHT22;4464;50.882;4.730;2023-08-21T11:53:32;34.60;72.80
8856;DHT22;4464;50.882;4.730;2023-08-21T11:55:58;36.40;69.40
8856;DHT22;4464;50.882;4.730;2023-08-21T11:58:27;34.70;73.40
8856;DHT22;4464;50.882;4.730;2023-08-21T12:00:54;33.50;73.80
8856;DHT22;4464;50.882;4.730;2023-08-21T12:03:20;34.40;74.40
8856;DHT22;4464;50.882;4.730;2023-08-21T12:05:45;34.30;72.50
8856;DHT22;4464;50.882;4.730;2023-08-21T12:08:11;34.10;73.70
8856;DHT22;4464;50.882;4.730;2023-08-21T12:10:37;33.80;73.40
8856;DHT22;4464;50.882;4.730;2023-08-21T12:13:03;33.10;74.40
8856;DHT22;4464;50.882;4.730;2023-08-21T12:15:29;32.30;74.50
8856;DHT22;4464;50.882;4.730;2023-08-21T12:17:57;31.70;75.90
8856;DHT22;4464;50.882;4.730;2023-08-21T12:20:23;29.90;80.00
8856;DHT22;4464;50.882;4.730;2023-08-21T12:22:48;29.40;80.80
8856;DHT22;4464;50.882;4.730;2023-08-21T12:25:14;29.30;82.20
8856;DHT22;4464;50.882;4.730;2023-08-21T12:27:47;30.40;81.60
8856;DHT22;4464;50.882;4.730;2023-08-21T12:30:15;33.30;78.10
8856;DHT22;4464;50.882;4.730;2023-08-21T12:32:40;35.30;72.40
8856;DHT22;4464;50.882;4.730;2023-08-21T12:35:09;35.90;69.50
8856;DHT22;4464;50.882;4.730;2023-08-21T12:37:42;36.70;68.50
8856;DHT22;4464;50.882;4.730;2023-08-21T12:40:11;38.10;66.20
8856;DHT22;4464;50.882;4.730;2023-08-21T12:42:37;37.10;67.30
8856;DHT22;4464;50.882;4.730;2023-08-21T12:45:03;36.90;67.70
8856;DHT22;4464;50.882;4.730;2023-08-21T12:47:29;37.10;66.20
8856;DHT22;4464;50.882;4.730;2023-08-21T12:49:54;34.90;69.10
8856;DHT22;4464;50.882;4.730;2023-08-21T12:52:22;34.30;69.80
8856;DHT22;4464;50.882;4.730;2023-08-21T12:54:55;35.70;69.50
8856;DHT22;4464;50.882;4.730;2023-08-21T12:57:20;38.10;64.50
8856;DHT22;4464;50.882;4.730;2023-08-21T12:59:47;38.30;63.30
8856;DHT22;4464;50.882;4.730;2023-08-21T13:02:12;37.70;64.50
8856;DHT22;4464;50.882;4.730;2023-08-21T13:04:38;37.70;63.40
8856;DHT22;4464;50.882;4.730;2023-08-21T13:07:04;38.60;63.30
8856;DHT22;4464;50.882;4.730;2023-08-21T13:09:30;39.80;60.90
8856;DHT22;4464;50.882;4.730;2023-08-21T13:12:01;38.40;59.90
8856;DHT22;4464;50.882;4.730;2023-08-21T13:14:27;36.90;61.80
8856;DHT22;4464;50.882;4.730;2023-08-21T13:16:53;37.40;63.20
8856;DHT22;4464;50.882;4.730;2023-08-21T13:19:19;37.90;61.00
8856;DHT22;4464;50.882;4.730;2023-08-21T13:21:44;36.50;62.60
8856;DHT22;4464;50.882;4.730;2023-08-21T13:24:13;35.30;65.70
8856;DHT22;4464;50.882;4.730;2023-08-21T13:26:38;35.10;65.50
8856;DHT22;4464;50.882;4.730;2023-08-21T13:29:04;35.10;65.70
8856;DHT22;4464;50.882;4.730;2023-08-21T13:31:36;34.30;66.90
8856;DHT22;4464;50.882;4.730;2023-08-21T13:34:02;35.30;64.50
8856;DHT22;4464;50.882;4.730;2023-08-21T13:36:28;34.50;66.50
8856;DHT22;4464;50.882;4.730;2023-08-21T13:38:56;32.70;67.60
8856;DHT22;4464;50.882;4.730;2023-08-21T13:41:25;32.40;67.90
8856;DHT22;4464;50.882;4.730;2023-08-21T13:43:50;32.80;68.20
8856;DHT22;4464;50.882;4.730;2023-08-21T13:46:19;33.00;68.90
8856;DHT22;4464;50.882;4.730;2023-08-21T13:48:45;33.50;69.20
8856;DHT22;4464;50.882;4.730;2023-08-21T13:51:14;33.60;70.40
8856;DHT22;4464;50.882;4.730;2023-08-21T13:53:40;32.60;70.00
8856;DHT22;4464;50.882;4.730;2023-08-21T13:56:05;32.70;70.00
8856;DHT22;4464;50.882;4.730;2023-08-21T13:58:31;35.50;67.10
8856;DHT22;4464;50.882;4.730;2023-08-21T14:00:57;38.40;62.70
8856;DHT22;4464;50.882;4.730;2023-08-21T14:03:23;39.20;59.90
8856;DHT22;4464;50.882;4.730;2023-08-21T14:05:52;40.30;58.50
8856;DHT22;4464;50.882;4.730;2023-08-21T14:08:20;38.70;60.70
8856;DHT22;4464;50.882;4.730;2023-08-21T14:10:49;39.10;60.30
8856;DHT22;4464;50.882;4.730;2023-08-21T14:13:16;40.70;58.50
8856;DHT22;4464;50.882;4.730;2023-08-21T14:15:42;39.30;58.80
8856;DHT22;4464;50.882;4.730;2023-08-21T14:18:10;39.80;59.40
8856;DHT22;4464;50.882;4.730;2023-08-21T14:20:36;41.80;57.30
8856;DHT22;4464;50.882;4.730;2023-08-21T14:23:02;41.20;57.90
8856;DHT22;4464;50.882;4.730;2023-08-21T14:25:28;40.50;57.60
8856;DHT22;4464;50.882;4.730;2023-08-21T14:27:54;39.50;58.20
8856;DHT22;4464;50.882;4.730;2023-08-21T14:30:24;40.40;58.00
8856;DHT22;4464;50.882;4.730;2023-08-21T14:32:52;40.00;57.50
8856;DHT22;4464;50.882;4.730;2023-08-21T14:35:20;38.70;58.70
8856;DHT22;4464;50.882;4.730;2023-08-21T14:37:46;38.20;61.70
8856;DHT22;4464;50.882;4.730;2023-08-21T14:40:12;39.50;57.90
8856;DHT22;4464;50.882;4.730;2023-08-21T14:42:38;38.70;58.70
8856;DHT22;4464;50.882;4.730;2023-08-21T14:45:09;38.40;59.80
8856;DHT22;4464;50.882;4.730;2023-08-21T14:47:34;39.10;58.40
8856;DHT22;4464;50.882;4.730;2023-08-21T14:50:05;40.30;58.10
8856;DHT22;4464;50.882;4.730;2023-08-21T14:52:33;37.80;59.00
8856;DHT22;4464;50.882;4.730;2023-08-21T14:54:59;37.50;61.30
8856;DHT22;4464;50.882;4.730;2023-08-21T14:57:25;36.60;61.40
8856;DHT22;4464;50.882;4.730;2023-08-21T14:59:50;37.20;60.90
8856;DHT22;4464;50.882;4.730;2023-08-21T15:02:18;36.20;61.80
8856;DHT22;4464;50.882;4.730;2023-08-21T15:04:44;35.40;63.20
8856;DHT22;4464;50.882;4.730;2023-08-21T15:07:10;35.40;62.80
8856;DHT22;4464;50.882;4.730;2023-08-21T15:09:38;37.30;61.00
8856;DHT22;4464;50.882;4.730;2023-08-21T15:12:04;38.90;59.00
8856;DHT22;4464;50.882;4.730;2023-08-21T15:14:29;40.10;56.70
8856;DHT22;4464;50.882;4.730;2023-08-21T15:16:58;40.90;56.80
8856;DHT22;4464;50.882;4.730;2023-08-21T15:19:23;40.80;55.90
8856;DHT22;4464;50.882;4.730;2023-08-21T15:21:53;40.20;56.20
8856;DHT22;4464;50.882;4.730;2023-08-21T15:24:19;38.90;57.00
8856;DHT22;4464;50.882;4.730;2023-08-21T15:26:45;38.90;57.50
8856;DHT22;4464;50.882;4.730;2023-08-21T15:29:10;38.10;58.00
8856;DHT22;4464;50.882;4.730;2023-08-21T15:31:36;36.20;60.80
8856;DHT22;4464;50.882;4.730;2023-08-21T15:34:04;36.00;61.40
8856;DHT22;4464;50.882;4.730;2023-08-21T15:36:32;37.80;59.40
8856;DHT22;4464;50.882;4.730;2023-08-21T15:38:58;38.20;58.10
8856;DHT22;4464;50.882;4.730;2023-08-21T15:41:24;39.10;57.00
8856;DHT22;4464;50.882;4.730;2023-08-21T15:43:49;39.20;56.50
8856;DHT22;4464;50.882;4.730;2023-08-21T15:46:17;36.40;59.10
8856;DHT22;4464;50.882;4.730;2023-08-21T15:48:43;35.60;60.50
8856;DHT22;4464;50.882;4.730;2023-08-21T15:51:08;34.60;62.00
8856;DHT22;4464;50.882;4.730;2023-08-21T15:53:34;33.30;64.50
8856;DHT22;4464;50.882;4.730;2023-08-21T15:56:02;32.60;64.90
8856;DHT22;4464;50.882;4.730;2023-08-21T15:58:30;34.00;65.40
8856;DHT22;4464;50.882;4.730;2023-08-21T16:00:57;36.00;61.90
8856;DHT22;4464;50.882;4.730;2023-08-21T16:03:23;36.50;60.40
8856;DHT22;4464;50.882;4.730;2023-08-21T16:05:48;35.10;61.00
8856;DHT22;4464;50.882;4.730;2023-08-21T16:08:14;35.00;61.30
8856;DHT22;4464;50.882;4.730;2023-08-21T16:10:40;34.70;63.00
8856;DHT22;4464;50.882;4.730;2023-08-21T16:13:06;36.20;61.50
8856;DHT22;4464;50.882;4.730;2023-08-21T16:15:31;36.20;59.60